Time;durP1;ratioP1;P1;durP2;ratioP2;P2;SDS_P1;SDS_P2;PMS_P1;PMS_P2;Temp;Humidity;BMP_temperature;BMP_pressure;BME280_temperature;BME280_humidity;BME280_pressure;Samples;Min_cycle;Max_cycle;Signal;HPM_P1;HPM_P2
2024/02/23 00:01:28;;;;;;;;;;;;;;;5.14;93.50;98719.75;5032483;28;20275;-78
2024/02/23 00:03:55;;;;;;;;;;;;;;;5.15;94.18;98726.00;5039712;28;19920;-76
2024/02/23 00:06:20;;;;;;;;;;;;;;;5.11;93.19;98726.03;5033422;28;20283;-78
2024/02/23 00:08:46;;;;;;;;;;;;;;;4.98;92.89;98724.16;5029771;28;19923;-78
2024/02/23 00:11:11;;;;;;;;;;;;;;;4.79;93.52;98720.72;5042866;28;19936;-76
2024/02/23 00:13:36;;;;;;;;;;;;;;;4.65;93.71;98715.28;5039451;28;19917;-78
2024/02/23 00:16:01;;;;;;;;;;;;;;;4.56;94.25;98711.41;5032931;28;19971;-79
2024/02/23 00:18:28;;;;;;;;;;;;;;;4.30;94.99;98718.13;5030103;28;19922;-78
2024/02/23 00:20:53;;;;;;;;;;;;;;;4.09;95.92;98711.53;5045813;28;19927;-76
2024/02/23 00:23:19;;;;;;;;;;;;;;;3.92;96.71;98715.03;5040147;28;19913;-74
2024/02/23 00:25:44;;;;;;;;;;;;;;;3.86;98.44;98711.13;5046091;28;19913;-80
2024/02/23 00:28:09;;;;;;;;;;;;;;;3.87;100.00;98707.22;5039847;28;19974;-74
2024/02/23 00:30:35;;;;;;;;;;;;;;;3.86;100.00;98694.75;5032592;28;19912;-78
2024/02/23 00:33:02;;;;;;;;;;;;;;;3.78;100.00;98698.66;5049737;28;19940;-75
2024/02/23 00:35:27;;;;;;;;;;;;;;;3.77;100.00;98709.97;5034117;28;19917;-78
2024/02/23 00:37:52;;;;;;;;;;;;;;;3.84;100.00;98705.31;5038473;28;19924;-79
2024/02/23 00:40:20;;;;;;;;;;;;;;;3.86;100.00;98702.94;5034284;28;19917;-84
2024/02/23 00:42:46;;;;;;;;;;;;;;;3.87;100.00;98696.31;5029692;28;20392;-82
2024/02/23 00:45:11;;;;;;;;;;;;;;;3.87;100.00;98684.59;5031918;28;19919;-82
2024/02/23 00:47:37;;;;;;;;;;;;;;;3.89;100.00;98682.25;5040201;28;20386;-82
2024/02/23 00:50:03;;;;;;;;;;;;;;;3.84;100.00;98686.16;5032687;28;19913;-75
2024/02/23 00:52:28;;;;;;;;;;;;;;;3.84;100.00;98686.16;5049006;28;19920;-79
2024/02/23 00:54:53;;;;;;;;;;;;;;;3.82;100.00;98674.84;5046619;28;20382;-79
2024/02/23 00:57:25;;;;;;;;;;;;;;;3.85;100.00;98674.06;5037782;28;19920;-78
2024/02/23 00:59:51;;;;;;;;;;;;;;;3.88;100.00;98676.00;5032248;28;19936;-79
2024/02/23 01:02:16;;;;;;;;;;;;;;;3.96;100.00;98680.31;5029029;28;20321;-76
2024/02/23 01:04:41;;;;;;;;;;;;;;;3.98;100.00;98672.47;5031987;28;19932;-75
2024/02/23 01:07:07;;;;;;;;;;;;;;;4.00;100.00;98669.34;5039704;28;19917;-77
2024/02/23 01:09:32;;;;;;;;;;;;;;;3.96;100.00;98674.84;5028773;28;19917;-78
2024/02/23 01:11:57;;;;;;;;;;;;;;;3.92;100.00;98670.53;5037554;28;19923;-83
2024/02/23 01:14:23;;;;;;;;;;;;;;;3.91;100.00;98666.25;5046631;28;20313;-77
2024/02/23 01:16:48;;;;;;;;;;;;;;;3.92;100.00;98671.31;5028776;28;19994;-85
2024/02/23 01:19:15;;;;;;;;;;;;;;;3.91;100.00;98664.31;5042481;28;19964;-83
2024/02/23 01:21:40;;;;;;;;;;;;;;;3.92;100.00;98662.31;5038103;28;19984;-78
2024/02/23 01:24:06;;;;;;;;;;;;;;;3.82;100.00;98666.66;5035303;28;19921;-81
2024/02/23 01:26:31;;;;;;;;;;;;;;;3.84;100.00;98667.03;5047997;28;19970;-84
2024/02/23 01:28:56;;;;;;;;;;;;;;;3.74;100.00;98667.81;5035697;28;19970;-77
2024/02/23 01:31:22;;;;;;;;;;;;;;;3.71;100.00;98667.81;5049346;28;19940;-77
2024/02/23 01:33:49;;;;;;;;;;;;;;;3.67;100.00;98654.19;5036485;28;20007;-79
2024/02/23 01:36:14;;;;;;;;;;;;;;;3.68;100.00;98651.03;5039925;28;19925;-82
2024/02/23 01:38:42;;;;;;;;;;;;;;;3.77;100.00;98649.88;5042388;28;20414;-85
2024/02/23 01:41:07;;;;;;;;;;;;;;;3.86;100.00;98655.72;5029186;28;19924;-82
2024/02/23 01:43:33;;;;;;;;;;;;;;;3.89;100.00;98655.72;5028684;28;19914;-74
2024/02/23 01:45:58;;;;;;;;;;;;;;;3.89;100.00;98655.72;5037486;28;20458;-76
2024/02/23 01:48:24;;;;;;;;;;;;;;;3.91;100.00;98658.84;5046007;28;19917;-77
2024/02/23 01:50:49;;;;;;;;;;;;;;;3.93;100.00;98661.16;5037307;28;19917;-77
2024/02/23 01:53:15;;;;;;;;;;;;;;;3.96;100.00;98652.97;5048462;28;19924;-79
2024/02/23 01:55:41;;;;;;;;;;;;;;;3.97;100.00;98651.81;5039253;28;20031;-75
2024/02/23 01:58:07;;;;;;;;;;;;;;;3.98;100.00;98647.88;5028642;28;19921;-77
2024/02/23 02:00:34;;;;;;;;;;;;;;;4.01;100.00;98649.81;5028429;28;19944;-77
2024/02/23 02:02:59;;;;;;;;;;;;;;;4.07;100.00;98653.72;5041427;28;19917;-80
2024/02/23 02:05:25;;;;;;;;;;;;;;;4.04;100.00;98637.31;5037113;28;19917;-79
2024/02/23 02:07:53;;;;;;;;;;;;;;;3.98;100.00;98645.13;5047463;28;19921;-76
2024/02/23 02:10:19;;;;;;;;;;;;;;;3.98;100.00;98652.56;5038590;28;19921;-82
2024/02/23 02:12:45;;;;;;;;;;;;;;;4.00;100.00;98645.53;5028225;28;19917;-84
2024/02/23 02:15:10;;;;;;;;;;;;;;;3.99;100.00;98641.22;5037883;28;19917;-85
2024/02/23 02:17:35;;;;;;;;;;;;;;;4.07;100.00;98631.84;5032663;28;20329;-79
2024/02/23 02:20:04;;;;;;;;;;;;;;;4.05;100.00;98644.34;5029074;28;19966;-76
2024/02/23 02:22:29;;;;;;;;;;;;;;;4.01;100.00;98636.16;5031893;28;19917;-79
2024/02/23 02:24:55;;;;;;;;;;;;;;;4.05;100.00;98645.13;5043439;28;19917;-80
2024/02/23 02:27:20;;;;;;;;;;;;;;;3.97;100.00;98651.81;5034729;28;19921;-81
2024/02/23 02:29:45;;;;;;;;;;;;;;;3.97;100.00;98649.06;5052346;28;19917;-82
2024/02/23 02:32:10;;;;;;;;;;;;;;;4.02;100.00;98650.63;5039024;28;19917;-85
2024/02/23 02:34:37;;;;;;;;;;;;;;;4.03;100.00;98643.97;5051867;28;19917;-80
2024/02/23 02:37:02;;;;;;;;;;;;;;;3.94;100.00;98646.31;5035902;28;20406;-76
2024/02/23 02:39:28;;;;;;;;;;;;;;;3.77;98.69;98650.66;5031687;28;19920;-79
2024/02/23 02:41:54;;;;;;;;;;;;;;;3.59;98.37;98642.47;5046913;28;19985;-79
2024/02/23 02:44:20;;;;;;;;;;;;;;;3.27;98.91;98634.25;5042595;28;19913;-77
2024/02/23 02:46:46;;;;;;;;;;;;;;;3.18;100.00;98633.09;5047054;28;19919;-85
2024/02/23 02:49:11;;;;;;;;;;;;;;;3.16;100.00;98638.16;5051509;28;20404;-82
2024/02/23 02:51:36;;;;;;;;;;;;;;;3.05;100.00;98656.47;5050090;28;19913;-82
2024/02/23 02:54:02;;;;;;;;;;;;;;;2.93;99.79;98654.09;5040141;28;20312;-81
2024/02/23 02:56:27;;;;;;;;;;;;;;;2.73;99.31;98651.72;5036539;28;19917;-83
2024/02/23 02:58:53;;;;;;;;;;;;;;;2.60;99.50;98647.78;5039674;28;19917;-78
2024/02/23 03:01:18;;;;;;;;;;;;;;;2.28;99.62;98661.28;5038801;28;20008;-86
2024/02/23 03:03:44;;;;;;;;;;;;;;;2.16;100.00;98661.63;5051307;28;20020;-85
2024/02/23 03:06:09;;;;;;;;;;;;;;;2.20;100.00;98667.84;5035959;28;19913;-83
2024/02/23 03:08:34;;;;;;;;;;;;;;;2.15;100.00;98678.34;5031496;28;19956;-82
2024/02/23 03:11:00;;;;;;;;;;;;;;;2.16;100.00;98666.28;5033034;28;19924;-83
2024/02/23 03:13:26;;;;;;;;;;;;;;;2.14;100.00;98672.09;5042607;28;19924;-82
2024/02/23 03:15:52;;;;;;;;;;;;;;;2.08;100.00;98664.66;5047045;28;19917;-78
2024/02/23 03:18:17;;;;;;;;;;;;;;;2.01;100.00;98668.13;5050600;28;19957;-83
2024/02/23 03:20:42;;;;;;;;;;;;;;;1.97;100.00;98680.97;5035030;28;19921;-82
2024/02/23 03:23:07;;;;;;;;;;;;;;;1.82;100.00;98677.34;5039285;28;19912;-83
2024/02/23 03:25:33;;;;;;;;;;;;;;;1.71;100.00;98676.50;5048838;28;20019;-83
2024/02/23 03:27:58;;;;;;;;;;;;;;;1.45;100.00;98674.72;5031192;28;19917;-84
2024/02/23 03:30:24;;;;;;;;;;;;;;;1.46;100.00;98673.56;5031845;28;19913;-79
2024/02/23 03:32:49;;;;;;;;;;;;;;;1.54;100.00;98680.66;5042961;28;20382;-82
2024/02/23 03:35:15;;;;;;;;;;;;;;;1.64;100.00;98687.31;5044115;28;20004;-81
2024/02/23 03:37:40;;;;;;;;;;;;;;;1.74;100.00;98688.59;5050509;28;19913;-84
2024/02/23 03:40:06;;;;;;;;;;;;;;;1.87;100.00;98689.84;5049897;28;19913;-80
2024/02/23 03:42:31;;;;;;;;;;;;;;;1.84;100.00;98680.47;5050442;28;19913;-77
2024/02/23 03:44:56;;;;;;;;;;;;;;;1.81;100.00;98680.47;5036926;28;19917;-82
2024/02/23 03:47:22;;;;;;;;;;;;;;;1.88;100.00;98675.06;5043207;28;19917;-78
2024/02/23 03:49:47;;;;;;;;;;;;;;;1.94;100.00;98685.22;5043961;28;19921;-83
2024/02/23 03:52:13;;;;;;;;;;;;;;;1.99;100.00;98665.00;5051324;28;20393;-80
2024/02/23 03:54:38;;;;;;;;;;;;;;;2.05;100.00;98668.94;5036997;28;19913;-84
2024/02/23 03:57:04;;;;;;;;;;;;;;;2.08;100.00;98670.13;5042769;28;20003;-75
2024/02/23 03:59:29;;;;;;;;;;;;;;;2.10;100.00;98667.81;5044454;27;19913;-79
2024/02/23 04:01:54;;;;;;;;;;;;;;;2.05;100.00;98669.72;5026881;28;19925;-77
2024/02/23 04:04:20;;;;;;;;;;;;;;;1.94;100.00;98670.81;5037520;28;19965;-81
2024/02/23 04:06:46;;;;;;;;;;;;;;;1.88;100.00;98664.94;5030098;28;19913;-82
2024/02/23 04:09:12;;;;;;;;;;;;;;;1.83;100.00;98665.28;5030715;28;19913;-81
2024/02/23 04:11:37;;;;;;;;;;;;;;;1.89;100.00;98666.50;5049914;28;19934;-86
2024/02/23 04:14:05;;;;;;;;;;;;;;;1.88;100.00;98673.09;5036079;28;19960;-84
2024/02/23 04:16:31;;;;;;;;;;;;;;;1.92;100.00;98662.25;5030277;28;19973;-86
2024/02/23 04:18:57;;;;;;;;;;;;;;;1.80;100.00;98679.69;5045045;28;19913;-84
2024/02/23 04:21:22;;;;;;;;;;;;;;;1.61;100.00;98688.88;5042216;28;19914;-84
2024/02/23 04:23:48;;;;;;;;;;;;;;;1.43;100.00;98682.50;5044120;28;19912;-84
2024/02/23 04:26:14;;;;;;;;;;;;;;;1.40;100.00;98675.06;5042564;28;20011;-86
2024/02/23 04:28:40;;;;;;;;;;;;;;;1.22;100.00;98683.09;5030571;28;19921;-86
2024/02/23 04:31:06;;;;;;;;;;;;;;;1.17;100.00;98685.38;5037040;28;20409;-83
2024/02/23 04:33:31;;;;;;;;;;;;;;;1.17;100.00;98691.59;5036683;28;20305;-83
2024/02/23 04:35:57;;;;;;;;;;;;;;;1.27;100.00;98695.56;5042869;28;20381;-85
2024/02/23 04:38:22;;;;;;;;;;;;;;;1.28;100.00;98688.19;5029515;28;19920;-88
2024/02/23 04:40:47;;;;;;;;;;;;;;;1.32;100.00;98689.81;5029740;28;19924;-83
2024/02/23 04:43:14;;;;;;;;;;;;;;;1.36;100.00;98687.09;5029723;28;19964;-80
2024/02/23 04:45:40;;;;;;;;;;;;;;;1.37;100.00;98681.28;5028843;28;19925;-82
2024/02/23 04:48:05;;;;;;;;;;;;;;;1.46;100.00;98681.75;5042201;28;19917;-81
2024/02/23 04:50:30;;;;;;;;;;;;;;;1.53;100.00;98689.19;5035799;28;19961;-82
2024/02/23 04:52:56;;;;;;;;;;;;;;;1.54;100.00;98683.38;5049207;28;19913;-79
2024/02/23 04:55:21;;;;;;;;;;;;;;;1.62;100.00;98684.22;5043049;28;19917;-79
2024/02/23 04:57:48;;;;;;;;;;;;;;;1.64;100.00;98685.38;5042440;28;19917;-82
2024/02/23 05:00:13;;;;;;;;;;;;;;;1.56;100.00;98680.28;5042564;28;20515;-83
2024/02/23 05:02:38;;;;;;;;;;;;;;;1.72;100.00;98677.28;5029887;28;19953;-84
2024/02/23 05:05:04;;;;;;;;;;;;;;;1.86;100.00;98691.00;5091594;28;19912;-83
2024/02/23 05:07:31;;;;;;;;;;;;;;;1.87;100.00;98696.06;5016291;28;19921;-84
2024/02/23 05:09:56;;;;;;;;;;;;;;;2.00;100.00;98691.09;5016744;28;19974;-84
2024/02/23 05:12:22;;;;;;;;;;;;;;;2.08;100.00;98684.53;5031306;28;19918;-86
2024/02/23 05:14:48;;;;;;;;;;;;;;;2.19;100.00;98685.38;5029718;28;20417;-85
2024/02/23 05:17:13;;;;;;;;;;;;;;;2.22;100.00;98694.75;5029572;28;19928;-82
2024/02/23 05:19:38;;;;;;;;;;;;;;;2.29;100.00;98694.78;5029197;28;19913;-85
2024/02/23 05:22:04;;;;;;;;;;;;;;;2.37;100.00;98696.38;5029165;28;20453;-82
2024/02/23 05:24:29;;;;;;;;;;;;;;;2.43;100.00;98697.56;5029217;28;19920;-81
2024/02/23 05:26:54;;;;;;;;;;;;;;;2.38;100.00;98696.00;5042030;28;19920;-84
2024/02/23 05:29:22;;;;;;;;;;;;;;;2.39;100.00;98708.47;5028877;28;19913;-86
2024/02/23 05:31:56;;;;;;;;;;;;;;;2.52;100.00;98713.59;5041691;28;19997;-86
2024/02/23 05:34:51;;;;;;;;;;;;;;;2.55;100.00;98712.81;5041236;28;19913;-85
2024/02/23 05:37:17;;;;;;;;;;;;;;;2.52;100.00;98716.31;5042402;28;19956;-84
2024/02/23 05:39:49;;;;;;;;;;;;;;;2.50;100.00;98713.19;5039727;28;19933;-84
2024/02/23 05:42:15;;;;;;;;;;;;;;;2.30;100.00;98713.47;5032289;28;20043;-80
2024/02/23 05:44:43;;;;;;;;;;;;;;;2.18;100.00;98713.78;5030698;28;19972;-85
2024/02/23 05:47:10;;;;;;;;;;;;;;;2.28;100.00;98710.34;5030029;28;19917;-78
2024/02/23 05:49:35;;;;;;;;;;;;;;;2.60;100.00;98720.63;5030233;28;19920;-86
2024/02/23 05:52:06;;;;;;;;;;;;;;;2.93;100.00;98723.13;5030431;28;19918;-82
2024/02/23 05:54:33;;;;;;;;;;;;;;;3.18;100.00;98728.66;5042959;28;20655;-84
2024/02/23 05:56:59;;;;;;;;;;;;;;;3.41;100.00;98722.84;5038550;28;20401;-80
2024/02/23 05:59:27;;;;;;;;;;;;;;;3.72;100.00;98715.84;5051804;28;19920;-79
2024/02/23 06:02:22;;;;;;;;;;;;;;;3.92;100.00;98725.19;5023424;28;19925;-79
2024/02/23 06:04:48;;;;;;;;;;;;;;;4.12;100.00;98725.56;5107714;27;19917;-77
2024/02/23 06:07:16;;;;;;;;;;;;;;;4.02;100.00;98716.22;5039978;28;19921;-77
2024/02/23 06:09:47;;;;;;;;;;;;;;;4.06;100.00;98723.25;5032059;28;19963;-77
2024/02/23 06:12:12;;;;;;;;;;;;;;;4.14;99.97;98723.22;5031559;28;19913;-78
2024/02/23 06:14:40;;;;;;;;;;;;;;;4.32;100.00;98734.91;5031159;28;19920;-76
2024/02/23 06:17:12;;;;;;;;;;;;;;;4.95;98.17;98730.41;5030854;28;20024;-77
2024/02/23 06:19:38;;;;;;;;;;;;;;;5.93;95.93;98734.50;5031715;28;19913;-78
2024/02/23 06:22:04;;;;;;;;;;;;;;;7.06;87.78;98735.28;5030306;28;20468;-79
2024/02/23 06:24:29;;;;;;;;;;;;;;;8.14;79.01;98745.06;5030359;28;19915;-74
2024/02/23 06:26:55;;;;;;;;;;;;;;;8.49;71.44;98734.69;5043983;28;19964;-76
2024/02/23 06:29:20;;;;;;;;;;;;;;;8.65;70.44;98743.03;5031115;28;20325;-76
2024/02/23 06:31:49;;;;;;;;;;;;;;;9.48;66.40;98735.38;5032211;28;20404;-79
2024/02/23 06:34:14;;;;;;;;;;;;;;;9.76;60.59;98740.25;5044095;28;20003;-74
2024/02/23 06:36:40;;;;;;;;;;;;;;;10.13;60.61;98743.72;5043446;28;20372;-76
2024/02/23 06:39:08;;;;;;;;;;;;;;;10.15;59.42;98738.53;5031967;28;19913;-75
2024/02/23 06:41:33;;;;;;;;;;;;;;;9.95;60.15;98733.09;5043865;28;19929;-74
2024/02/23 06:44:00;;;;;;;;;;;;;;;9.69;60.60;98729.41;5037141;28;19920;-77
2024/02/23 06:46:25;;;;;;;;;;;;;;;9.97;61.53;98738.97;5051030;28;19913;-77
2024/02/23 06:48:51;;;;;;;;;;;;;;;10.71;57.59;98730.03;5036726;28;20282;-75
2024/02/23 06:51:16;;;;;;;;;;;;;;;10.59;57.21;98742.56;5050776;28;19919;-77
2024/02/23 06:53:42;;;;;;;;;;;;;;;11.07;56.29;98738.09;5036431;28;20363;-76
2024/02/23 06:56:07;;;;;;;;;;;;;;;12.00;53.39;98745.91;5037487;27;19936;-75
2024/02/23 06:58:32;;;;;;;;;;;;;;;12.35;52.00;98744.00;5029782;28;19913;-74
2024/02/23 07:00:58;;;;;;;;;;;;;;;12.50;50.04;98735.97;5041659;28;19944;-75
2024/02/23 07:03:23;;;;;;;;;;;;;;;12.13;50.82;98745.91;5035973;28;19917;-77
2024/02/23 07:05:49;;;;;;;;;;;;;;;11.61;52.10;98740.81;5035184;28;20354;-75
2024/02/23 07:08:15;;;;;;;;;;;;;;;11.11;53.78;98742.28;5028942;28;19970;-76
2024/02/23 07:10:40;;;;;;;;;;;;;;;10.60;56.95;98744.91;5028105;28;19921;-75
2024/02/23 07:13:06;;;;;;;;;;;;;;;10.35;57.20;98747.53;5032520;28;20367;-76
2024/02/23 07:15:32;;;;;;;;;;;;;;;10.14;59.95;98743.28;5035476;28;20001;-78
2024/02/23 07:17:58;;;;;;;;;;;;;;;9.88;61.66;98744.34;5027673;28;20438;-77
2024/02/23 07:20:23;;;;;;;;;;;;;;;9.72;62.70;98736.03;5029067;28;19919;-74
2024/02/23 07:22:48;;;;;;;;;;;;;;;9.63;64.67;98739.41;5042434;28;20401;-78
2024/02/23 07:25:17;;;;;;;;;;;;;;;9.70;65.41;98739.25;5029630;28;19925;-75
2024/02/23 07:27:43;;;;;;;;;;;;;;;9.87;66.85;98728.97;5029546;28;19936;-74
2024/02/23 07:30:09;;;;;;;;;;;;;;;9.85;66.99;98734.16;5042108;28;20386;-76
2024/02/23 07:32:34;;;;;;;;;;;;;;;9.85;69.27;98741.66;5029947;28;20486;-77
2024/02/23 07:34:59;;;;;;;;;;;;;;;9.92;67.42;98733.19;5029220;28;19966;-75
2024/02/23 07:37:28;;;;;;;;;;;;;;;10.06;67.23;98724.59;5029274;28;20374;-78
2024/02/23 07:39:53;;;;;;;;;;;;;;;10.21;65.16;98734.09;5030285;28;20441;-74
2024/02/23 07:42:18;;;;;;;;;;;;;;;10.16;62.76;98727.09;5029388;28;19917;-75
2024/02/23 07:44:44;;;;;;;;;;;;;;;10.25;65.05;98723.72;5028993;28;19965;-76
2024/02/23 07:47:09;;;;;;;;;;;;;;;10.40;61.84;98721.38;5028473;28;20432;-76
2024/02/23 07:49:35;;;;;;;;;;;;;;;10.52;62.54;98720.66;5040909;28;19924;-75
2024/02/23 07:52:01;;;;;;;;;;;;;;;10.57;61.19;98723.66;5030335;28;20374;-76
2024/02/23 07:54:27;;;;;;;;;;;;;;;10.67;60.80;98705.22;5029083;28;19913;-76
2024/02/23 07:56:52;;;;;;;;;;;;;;;10.75;61.44;98714.09;5028647;28;19913;-76
2024/02/23 07:59:17;;;;;;;;;;;;;;;10.86;60.23;98698.00;5030065;28;19952;-79
2024/02/23 08:01:42;;;;;;;;;;;;;;;11.08;59.82;98703.69;5033945;28;19956;-75
2024/02/23 08:04:08;;;;;;;;;;;;;;;10.92;59.34;98713.59;5048724;28;19981;-75
2024/02/23 08:06:33;;;;;;;;;;;;;;;10.96;58.97;98705.22;5035426;28;19916;-77
2024/02/23 08:08:58;;;;;;;;;;;;;;;11.12;58.51;98701.59;5048756;28;20020;-77
2024/02/23 08:11:24;;;;;;;;;;;;;;;11.24;58.42;98700.84;5043965;28;20477;-76
2024/02/23 08:13:50;;;;;;;;;;;;;;;11.39;57.91;98699.97;5039593;28;19919;-75
2024/02/23 08:16:16;;;;;;;;;;;;;;;11.53;59.34;98704.28;5048751;28;19920;-73
2024/02/23 08:18:41;;;;;;;;;;;;;;;11.67;57.91;98700.31;5037131;28;19913;-75
2024/02/23 08:21:07;;;;;;;;;;;;;;;11.60;59.60;98690.22;5046542;28;19959;-74
2024/02/23 08:23:32;;;;;;;;;;;;;;;11.66;57.75;98694.00;5025396;28;19921;-76
2024/02/23 08:25:58;;;;;;;;;;;;;;;11.66;56.50;98694.00;5031879;28;20427;-75
2024/02/23 08:28:23;;;;;;;;;;;;;;;11.71;55.67;98695.41;5048366;28;20515;-75
2024/02/23 08:30:49;;;;;;;;;;;;;;;11.77;54.49;98691.69;5047319;28;19924;-75
2024/02/23 08:33:14;;;;;;;;;;;;;;;11.79;54.88;98685.72;5037921;28;19936;-74
2024/02/23 08:35:39;;;;;;;;;;;;;;;11.60;55.01;98686.69;5041587;28;19940;-74
2024/02/23 08:38:07;;;;;;;;;;;;;;;11.69;55.30;98684.78;5038726;28;19913;-75
2024/02/23 08:40:32;;;;;;;;;;;;;;;11.69;54.51;98678.50;5031549;28;19964;-76
2024/02/23 08:42:57;;;;;;;;;;;;;;;11.78;54.54;98684.16;5048151;28;19913;-76
2024/02/23 08:45:22;;;;;;;;;;;;;;;11.83;54.52;98678.84;5047805;28;19917;-75
2024/02/23 08:47:51;;;;;;;;;;;;;;;11.77;54.55;98674.31;5038229;28;20028;-78
2024/02/23 08:50:17;;;;;;;;;;;;;;;11.67;55.74;98680.94;5044162;27;19913;-78
2024/02/23 08:52:43;;;;;;;;;;;;;;;11.70;55.51;98674.50;5040443;28;20404;-75
2024/02/23 08:55:08;;;;;;;;;;;;;;;11.85;53.96;98667.31;5031196;28;19920;-76
2024/02/23 08:57:34;;;;;;;;;;;;;;;11.96;54.52;98664.97;5038681;28;19916;-78
2024/02/23 09:00:04;;;;;;;;;;;;;;;12.08;56.40;98674.47;5044448;28;20181;-75
2024/02/23 09:02:32;;;;;;;;;;;;;;;11.98;55.13;98675.59;5028700;28;19917;-75
2024/02/23 09:04:57;;;;;;;;;;;;;;;12.03;55.28;98675.81;5046057;28;19913;-75
2024/02/23 09:07:23;;;;;;;;;;;;;;;12.28;56.53;98674.97;5037053;28;20465;-75
2024/02/23 09:09:49;;;;;;;;;;;;;;;12.44;54.15;98672.03;5028027;28;20424;-75
2024/02/23 09:12:16;;;;;;;;;;;;;;;12.34;54.01;98670.41;5039372;28;19959;-75
2024/02/23 09:14:41;;;;;;;;;;;;;;;12.38;53.22;98673.03;5047789;28;19913;-75
2024/02/23 09:17:08;;;;;;;;;;;;;;;12.41;54.10;98670.16;5048001;28;20361;-75
2024/02/23 09:19:33;;;;;;;;;;;;;;;12.44;53.36;98672.03;5031551;28;19932;-77
2024/02/23 09:22:00;;;;;;;;;;;;;;;12.55;53.26;98652.22;5035984;28;20314;-77
2024/02/23 09:24:26;;;;;;;;;;;;;;;12.41;53.32;98661.06;5024695;28;19917;-77
2024/02/23 09:26:51;;;;;;;;;;;;;;;12.53;54.49;98647.16;5027940;28;19924;-78
2024/02/23 09:29:17;;;;;;;;;;;;;;;12.72;53.17;98652.84;5033010;28;19991;-76
2024/02/23 09:31:43;;;;;;;;;;;;;;;12.84;52.11;98644.41;5049970;28;19919;-77
2024/02/23 09:34:08;;;;;;;;;;;;;;;12.63;53.30;98646.00;5046445;28;19917;-78
2024/02/23 09:36:33;;;;;;;;;;;;;;;12.59;54.11;98639.81;5026360;28;19921;-76
2024/02/23 09:39:01;;;;;;;;;;;;;;;12.78;53.52;98639.94;5038441;28;19913;-78
2024/02/23 09:41:28;;;;;;;;;;;;;;;12.73;54.09;98649.59;5051409;28;19917;-76
2024/02/23 09:44:03;;;;;;;;;;;;;;;12.74;54.06;98642.81;5033511;28;19932;-78
2024/02/23 09:46:32;;;;;;;;;;;;;;;12.80;54.40;98643.00;5032336;28;19949;-76
2024/02/23 09:48:58;;;;;;;;;;;;;;;12.87;56.32;98651.84;5031080;28;19994;-77
2024/02/23 09:51:24;;;;;;;;;;;;;;;13.06;54.25;98638.88;5031200;28;19913;-77
2024/02/23 09:53:51;;;;;;;;;;;;;;;13.16;54.86;98625.81;5031329;28;19914;-78
2024/02/23 09:56:18;;;;;;;;;;;;;;;13.29;54.56;98646.69;5045611;28;19920;-76
2024/02/23 09:58:44;;;;;;;;;;;;;;;13.38;52.88;98649.50;5044585;28;20007;-77
2024/02/23 10:01:11;;;;;;;;;;;;;;;13.27;52.72;98637.28;5032305;28;19957;-77
2024/02/23 10:03:37;;;;;;;;;;;;;;;13.16;53.61;98632.16;5034392;28;19924;-76
2024/02/23 10:06:03;;;;;;;;;;;;;;;13.14;51.88;98628.31;5049009;28;19917;-77
2024/02/23 10:08:28;;;;;;;;;;;;;;;13.27;54.67;98631.72;5038616;28;20294;-77
2024/02/23 10:10:55;;;;;;;;;;;;;;;13.41;53.46;98626.41;5049115;28;20384;-78
2024/02/23 10:13:21;;;;;;;;;;;;;;;13.49;53.27;98626.91;5031085;28;19913;-75
2024/02/23 10:15:47;;;;;;;;;;;;;;;13.37;52.09;98630.56;5029015;28;19984;-76
2024/02/23 10:18:12;;;;;;;;;;;;;;;13.45;51.81;98629.78;5050389;28;20382;-77
2024/02/23 10:20:38;;;;;;;;;;;;;;;13.20;51.67;98618.16;5035388;28;19917;-77
2024/02/23 10:23:04;;;;;;;;;;;;;;;13.23;52.94;98625.56;5030662;28;19983;-75
2024/02/23 10:25:29;;;;;;;;;;;;;;;13.25;52.06;98623.09;5043538;28;19962;-76
2024/02/23 10:27:56;;;;;;;;;;;;;;;13.24;51.33;98618.78;5022457;28;19921;-76
2024/02/23 10:30:22;;;;;;;;;;;;;;;13.12;51.71;98623.19;5048902;28;19923;-77
2024/02/23 10:32:50;;;;;;;;;;;;;;;13.21;51.32;98620.44;5030828;28;20016;-77
2024/02/23 10:35:16;;;;;;;;;;;;;;;13.26;50.65;98619.84;5044088;28;19917;-77
2024/02/23 10:37:48;;;;;;;;;;;;;;;13.25;51.02;98609.22;5027183;28;19924;-76
2024/02/23 10:40:14;;;;;;;;;;;;;;;13.32;49.88;98611.72;5025451;28;19975;-77
2024/02/23 10:42:41;;;;;;;;;;;;;;;13.35;51.63;98602.47;5021193;28;19925;-77
2024/02/23 10:45:08;;;;;;;;;;;;;;;13.25;50.60;98596.13;5049916;28;19913;-77
2024/02/23 10:47:33;;;;;;;;;;;;;;;13.41;50.37;98603.44;5041443;28;19928;-76
2024/02/23 10:50:01;;;;;;;;;;;;;;;13.30;49.48;98595.53;5032195;28;19917;-77
2024/02/23 10:52:27;;;;;;;;;;;;;;;13.28;50.03;98595.22;5041537;28;19921;-76
2024/02/23 10:54:57;;;;;;;;;;;;;;;13.36;49.88;98581.81;5032256;28;19936;-76
2024/02/23 10:57:23;;;;;;;;;;;;;;;13.40;49.24;98591.53;5041372;28;19917;-78
2024/02/23 10:59:48;;;;;;;;;;;;;;;13.51;50.05;98580.00;5045513;28;19968;-76
2024/02/23 11:02:17;;;;;;;;;;;;;;;13.57;49.33;98575.41;5050093;28;19916;-77
2024/02/23 11:04:45;;;;;;;;;;;;;;;13.55;48.61;98575.09;5034724;28;19928;-77
2024/02/23 11:07:15;;;;;;;;;;;;;;;13.60;48.72;98574.50;5030910;28;20305;-75
2024/02/23 11:09:40;;;;;;;;;;;;;;;13.66;47.81;98569.88;5046651;28;20402;-75
2024/02/23 11:12:06;;;;;;;;;;;;;;;13.66;48.64;98569.88;5039040;28;19913;-76
2024/02/23 11:14:35;;;;;;;;;;;;;;;13.69;49.65;98559.84;5042839;28;19956;-77
2024/02/23 11:17:01;;;;;;;;;;;;;;;13.52;48.36;98558.56;5040527;28;19921;-77
2024/02/23 11:19:38;;;;;;;;;;;;;;;13.47;47.01;98559.19;5032065;28;19969;-77
2024/02/23 11:22:04;;;;;;;;;;;;;;;13.53;48.17;98558.13;5042482;28;19969;-76
2024/02/23 11:24:30;;;;;;;;;;;;;;;13.60;47.49;98554.28;5030058;28;19917;-75
2024/02/23 11:27:08;;;;;;;;;;;;;;;13.62;47.00;98547.03;5029673;28;19917;-76
2024/02/23 11:29:36;;;;;;;;;;;;;;;13.61;47.10;98541.94;5025474;28;19962;-75
2024/02/23 11:32:03;;;;;;;;;;;;;;;13.72;46.55;98536.72;5049357;28;19912;-75
2024/02/23 11:34:30;;;;;;;;;;;;;;;13.74;46.78;98543.34;5042763;28;19913;-77
2024/02/23 11:36:56;;;;;;;;;;;;;;;13.86;46.23;98533.34;5029580;28;19989;-76
2024/02/23 11:39:22;;;;;;;;;;;;;;;13.89;47.06;98529.63;5030731;28;19913;-76
2024/02/23 11:41:49;;;;;;;;;;;;;;;13.95;47.07;98518.66;5030732;27;19960;-76
2024/02/23 11:44:14;;;;;;;;;;;;;;;14.00;47.11;98518.81;5041002;28;19924;-76
2024/02/23 11:46:40;;;;;;;;;;;;;;;14.08;47.58;98517.28;5029129;28;19917;-77
2024/02/23 11:49:05;;;;;;;;;;;;;;;14.12;47.00;98517.09;5029498;28;20077;-76
2024/02/23 11:51:31;;;;;;;;;;;;;;;14.15;46.46;98522.53;5043169;27;19963;-78
2024/02/23 11:53:58;;;;;;;;;;;;;;;14.18;44.45;98523.56;5028572;28;19920;-76
2024/02/23 11:56:23;;;;;;;;;;;;;;;14.23;46.34;98511.84;5029236;28;19920;-76
2024/02/23 11:58:48;;;;;;;;;;;;;;;14.20;45.57;98513.56;5036380;28;19917;-76
2024/02/23 12:01:14;;;;;;;;;;;;;;;14.16;45.51;98509.41;5048480;28;20398;-75
2024/02/23 12:03:39;;;;;;;;;;;;;;;14.32;45.96;98511.84;5050317;28;19920;-74
2024/02/23 12:06:06;;;;;;;;;;;;;;;14.42;46.74;98504.25;5034418;28;19913;-76
2024/02/23 12:08:37;;;;;;;;;;;;;;;14.47;46.55;98511.97;5035963;28;19955;-76
2024/02/23 12:11:03;;;;;;;;;;;;;;;14.35;45.11;98501.78;5048780;28;19913;-75
2024/02/23 12:13:29;;;;;;;;;;;;;;;14.42;45.14;98502.25;5040801;28;19974;-76
2024/02/23 12:15:55;;;;;;;;;;;;;;;14.48;43.94;98494.06;5042011;28;19917;-77
2024/02/23 12:18:26;;;;;;;;;;;;;;;14.47;44.92;98487.72;5036802;28;19913;-76
2024/02/23 12:20:51;;;;;;;;;;;;;;;14.46;44.03;98489.00;5046446;28;19937;-74
2024/02/23 12:23:16;;;;;;;;;;;;;;;14.54;45.10;98481.06;5037432;28;19917;-76
2024/02/23 12:26:00;;;;;;;;;;;;;;;14.60;44.35;98474.41;5046298;28;19912;-75
2024/02/23 12:28:26;;;;;;;;;;;;;;;14.51;44.19;98466.09;5035413;28;19924;-75
2024/02/23 12:30:58;;;;;;;;;;;;;;;14.62;44.32;98469.16;5025312;28;19917;-77
2024/02/23 12:33:26;;;;;;;;;;;;;;;14.42;44.18;98474.47;5021260;28;19925;-75
2024/02/23 12:35:53;;;;;;;;;;;;;;;14.36;45.36;98472.75;5028879;28;19924;-75
2024/02/23 12:38:28;;;;;;;;;;;;;;;14.48;45.43;98469.81;5040968;28;19919;-76
2024/02/23 12:40:55;;;;;;;;;;;;;;;14.54;44.86;98467.94;5048236;28;19913;-76
2024/02/23 12:43:31;;;;;;;;;;;;;;;14.60;46.00;98470.84;5048202;28;20007;-76